createdAt,value
2022-08-25T00:00:59.657Z,16.82
2022-08-25T00:03:01.318Z,16.85
2022-08-25T00:05:02.953Z,16.86
2022-08-25T00:07:04.425Z,16.81
2022-08-25T00:11:06.770Z,16.52
2022-08-25T00:13:07.978Z,16.39
2022-08-25T00:15:09.336Z,16.39
2022-08-25T00:17:11.180Z,16.66
2022-08-25T00:19:12.638Z,16.6
2022-08-25T00:21:14.167Z,16.54
2022-08-25T00:23:15.100Z,16.48
2022-08-25T00:25:16.581Z,16.43
2022-08-25T00:27:17.776Z,16.43
2022-08-25T00:29:18.878Z,16.52
2022-08-25T00:31:20.248Z,16.67
2022-08-25T00:33:21.323Z,16.58
2022-08-25T00:35:22.932Z,16.69
2022-08-25T00:37:24.409Z,16.72
2022-08-25T00:39:26.152Z,16.67
2022-08-25T00:41:28.013Z,16.56
2022-08-25T00:43:29.178Z,16.49
2022-08-25T00:45:30.302Z,16.47
2022-08-25T00:47:31.802Z,16.45
2022-08-25T00:49:32.784Z,16.44
2022-08-25T00:51:34.368Z,16.39
2022-08-25T00:53:35.713Z,16.35
2022-08-25T00:55:37.603Z,16.28
2022-08-25T00:57:39.209Z,16.24
2022-08-25T00:59:40.648Z,16.15
2022-08-25T01:01:41.860Z,16.08
2022-08-25T01:03:43.368Z,16.04
2022-08-25T01:05:44.553Z,15.99
2022-08-25T01:07:46.354Z,15.95
2022-08-25T01:09:47.868Z,15.93
2022-08-25T01:11:49.495Z,15.86
2022-08-25T01:13:51.070Z,15.87
2022-08-25T01:15:52.811Z,15.83
2022-08-25T01:17:54.230Z,15.76
2022-08-25T01:19:55.826Z,15.75
2022-08-25T01:21:57.146Z,15.68
2022-08-25T01:23:59.018Z,15.6
2022-08-25T01:26:00.296Z,15.52
2022-08-25T01:28:02.255Z,15.44
2022-08-25T01:30:03.260Z,15.32
2022-08-25T01:32:05.031Z,15.25
2022-08-25T01:34:06.305Z,15.25
2022-08-25T01:36:07.316Z,15.23
2022-08-25T01:38:08.720Z,15.25
2022-08-25T01:40:09.887Z,15.25
2022-08-25T01:42:10.661Z,15.26
2022-08-25T01:44:12.426Z,15.25
2022-08-25T01:46:12.959Z,15.26
2022-08-25T01:48:14.454Z,15.2
2022-08-25T01:50:15.756Z,15.21
2022-08-25T01:52:16.871Z,15.17
2022-08-25T01:54:17.905Z,15.13
2022-08-25T01:56:19.566Z,15.07
2022-08-25T01:58:20.647Z,15.01
2022-08-25T02:00:21.625Z,14.98
2022-08-25T02:02:22.804Z,14.86
2022-08-25T02:04:23.706Z,14.84
2022-08-25T02:06:27.684Z,14.93
2022-08-25T02:08:26.047Z,15.06
2022-08-25T02:10:27.213Z,15.11
2022-08-25T02:12:28.257Z,15.06
2022-08-25T02:14:29.829Z,15.03
2022-08-25T02:16:30.938Z,14.95
2022-08-25T02:18:32.840Z,14.93
2022-08-25T02:20:34.566Z,14.84
2022-08-25T02:22:35.932Z,14.86
2022-08-25T02:24:37.308Z,14.89
2022-08-25T02:26:38.589Z,14.91
2022-08-25T02:28:39.507Z,14.93
2022-08-25T02:30:41.436Z,14.86
2022-08-25T02:32:42.360Z,14.84
2022-08-25T02:34:43.658Z,14.81
2022-08-25T02:36:45.098Z,14.8
2022-08-25T02:38:46.330Z,14.75
2022-08-25T02:40:47.502Z,14.78
2022-08-25T02:42:48.449Z,14.81
2022-08-25T02:44:49.645Z,14.76
2022-08-25T02:46:50.612Z,14.74
2022-08-25T02:48:52.273Z,14.66
2022-08-25T02:50:53.894Z,14.66
2022-08-25T02:52:55.722Z,14.57
2022-08-25T02:54:57.449Z,14.55
2022-08-25T02:56:58.742Z,14.5
2022-08-25T02:58:59.761Z,14.38
2022-08-25T03:01:01.153Z,14.31
2022-08-25T03:03:02.795Z,14.22
2022-08-25T03:05:03.986Z,14.11
2022-08-25T03:07:05.835Z,14.22
2022-08-25T03:09:07.157Z,14.22
2022-08-25T03:11:08.276Z,14.25
2022-08-25T03:13:09.322Z,14.31
2022-08-25T03:15:12.989Z,14.28
2022-08-25T03:17:11.478Z,14.25
2022-08-25T03:19:12.552Z,14.15
2022-08-25T03:21:15.854Z,14.05
2022-08-25T03:23:15.437Z,14.07
2022-08-25T03:25:18.948Z,14.19
2022-08-25T03:27:18.243Z,14.27
2022-08-25T03:29:20.164Z,14.23
2022-08-25T03:31:21.506Z,14.16
2022-08-25T03:33:22.845Z,14.19
2022-08-25T03:35:24.463Z,14.1
2022-08-25T03:37:26.137Z,14.06
2022-08-25T03:39:27.458Z,14.07
2022-08-25T03:41:29.294Z,14.04
2022-08-25T03:43:30.605Z,13.98
2022-08-25T03:45:32.298Z,13.89
2022-08-25T03:47:34.047Z,13.85
2022-08-25T03:49:35.241Z,13.8
2022-08-25T03:51:36.837Z,13.84
2022-08-25T03:53:37.902Z,13.89
2022-08-25T03:55:39.044Z,13.87
2022-08-25T03:57:40.234Z,13.86
2022-08-25T03:59:41.381Z,13.82
2022-08-25T04:01:42.553Z,13.83
2022-08-25T04:03:44.397Z,13.8
2022-08-25T04:05:45.326Z,13.79
2022-08-25T04:07:47.051Z,13.77
2022-08-25T04:09:47.990Z,13.76
2022-08-25T04:11:51.969Z,13.82
2022-08-25T04:13:51.053Z,13.83
2022-08-25T04:15:52.930Z,13.79
2022-08-25T04:17:54.147Z,13.88
2022-08-25T04:19:55.333Z,13.83
2022-08-25T04:21:57.321Z,13.75
2022-08-25T04:23:58.034Z,13.8
2022-08-25T04:25:59.881Z,13.78
2022-08-25T04:28:01.261Z,13.76
2022-08-25T04:30:03.057Z,13.74
2022-08-25T04:32:04.093Z,13.82
2022-08-25T04:34:14.772Z,13.81
2022-08-25T04:36:10.127Z,13.82
2022-08-25T04:38:09.179Z,13.69
2022-08-25T04:40:10.779Z,13.65
2022-08-25T04:42:11.839Z,13.59
2022-08-25T04:44:13.132Z,13.58
2022-08-25T04:46:14.958Z,13.57
2022-08-25T04:48:16.499Z,13.64
2022-08-25T04:50:17.612Z,13.61
2022-08-25T04:52:18.847Z,13.65
2022-08-25T04:54:20.277Z,13.78
2022-08-25T04:56:22.134Z,13.84
2022-08-25T04:58:23.527Z,13.82
2022-08-25T05:00:24.799Z,13.78
2022-08-25T05:02:25.911Z,13.66
2022-08-25T05:04:27.980Z,13.62
2022-08-25T05:06:28.806Z,13.58
2022-08-25T05:08:29.730Z,13.55
2022-08-25T05:10:31.315Z,13.53
2022-08-25T05:12:33.025Z,13.59
2022-08-25T05:14:34.607Z,13.81
2022-08-25T05:16:35.514Z,13.8
2022-08-25T05:18:37.416Z,13.85
2022-08-25T05:20:39.028Z,14.02
2022-08-25T05:22:40.052Z,14.17
2022-08-25T05:24:41.887Z,14.54
2022-08-25T05:26:43.219Z,14.7
2022-08-25T05:28:44.864Z,14.81
2022-08-25T05:30:45.951Z,14.86
2022-08-25T05:32:46.873Z,15.17
2022-08-25T05:34:48.257Z,15.5
2022-08-25T05:36:49.598Z,15.5
2022-08-25T05:38:50.715Z,15.7
2022-08-25T05:40:52.267Z,15.97
2022-08-25T05:42:53.983Z,16.44
2022-08-25T05:44:55.120Z,17.09
2022-08-25T05:46:56.261Z,17.46
2022-08-25T05:48:57.477Z,17.3
2022-08-25T05:50:58.502Z,16.87
2022-08-25T05:52:59.886Z,17.4
2022-08-25T05:55:00.947Z,17.48
2022-08-25T05:57:02.683Z,17.52
2022-08-25T05:59:07.416Z,18.08
2022-08-25T06:01:05.021Z,17.22
2022-08-25T06:01:48.730Z,17.32
2022-08-25T06:03:50.493Z,17.22
2022-08-25T06:05:52.529Z,16.5
2022-08-25T06:07:53.599Z,16.24
2022-08-25T06:09:55.200Z,16.28
2022-08-25T06:11:57.355Z,16.96
2022-08-25T06:13:59.342Z,17.46
2022-08-25T06:16:01.098Z,17.81
2022-08-25T06:18:03.363Z,18.4
2022-08-25T06:20:05.484Z,18.63
2022-08-25T06:22:07.110Z,18.04
2022-08-25T06:24:11.018Z,17.74
2022-08-25T06:26:09.496Z,17.94
2022-08-25T06:28:11.864Z,18.24
2022-08-25T06:30:13.151Z,17.8
2022-08-25T06:32:14.356Z,17.89
2022-08-25T06:34:15.734Z,18.5
2022-08-25T06:36:17.148Z,18.8
2022-08-25T06:38:17.958Z,19.13
2022-08-25T06:40:19.394Z,19.81
2022-08-25T06:42:21.083Z,19.76
2022-08-25T06:44:22.221Z,19.84
2022-08-25T06:46:27.360Z,20.17
2022-08-25T06:48:25.225Z,20.1
2022-08-25T06:50:26.789Z,20.05
2022-08-25T06:52:29.174Z,19.83
2022-08-25T06:54:29.305Z,19.81
2022-08-25T06:56:30.300Z,19.96
2022-08-25T06:58:31.430Z,19.79
2022-08-25T07:00:32.607Z,20.23
2022-08-25T07:02:35.282Z,20.34
2022-08-25T07:04:35.751Z,19.68
2022-08-25T07:06:36.702Z,19.65
2022-08-25T07:08:37.529Z,20.24
2022-08-25T07:10:38.550Z,20.39
2022-08-25T07:12:40.166Z,20.81
2022-08-25T07:14:41.377Z,20.81
2022-08-25T07:16:48.670Z,20.86
2022-08-25T07:18:44.307Z,20.58
2022-08-25T07:20:45.007Z,20.84
2022-08-25T07:22:46.704Z,21.7
2022-08-25T07:24:47.608Z,21.56
2022-08-25T07:26:49.211Z,21.83
2022-08-25T07:28:50.708Z,22.15
2022-08-25T07:30:52.334Z,21.83
2022-08-25T07:32:54.810Z,22.15
2022-08-25T07:34:55.116Z,22.23
2022-08-25T07:36:56.249Z,22.84
2022-08-25T07:38:57.899Z,23.26
2022-08-25T07:40:58.972Z,23.76
2022-08-25T07:43:00.410Z,24.36
2022-08-25T07:45:01.358Z,24.62
2022-08-25T07:47:02.261Z,24.52
2022-08-25T07:49:03.363Z,24.25
2022-08-25T07:51:05.586Z,24.28
2022-08-25T07:55:06.915Z,23.88
2022-08-25T07:57:08.466Z,24.24
2022-08-25T07:59:09.275Z,24.56
2022-08-25T08:01:10.238Z,24.82
2022-08-25T08:03:16.005Z,25.26
2022-08-25T08:05:12.782Z,25.45
2022-08-25T08:07:14.396Z,25.85
2022-08-25T08:09:15.353Z,25.04
2022-08-25T08:11:16.937Z,25.3
2022-08-25T08:13:18.724Z,25.81
2022-08-25T08:15:18.969Z,25.58
2022-08-25T08:17:19.940Z,25.95
2022-08-25T08:19:23.183Z,25.38
2022-08-25T08:21:22.257Z,25.09
2022-08-25T08:23:23.186Z,25.29
2022-08-25T08:25:26.539Z,25.34
2022-08-25T08:27:25.305Z,25.15
2022-08-25T08:29:26.974Z,25.74
2022-08-25T08:31:28.540Z,25.71
2022-08-25T08:35:30.363Z,25.81
2022-08-25T08:37:31.176Z,25.48
2022-08-25T08:39:32.746Z,25.83
2022-08-25T08:41:36.780Z,26.35
2022-08-25T08:43:34.607Z,26.13
2022-08-25T08:45:40.316Z,26.07
2022-08-25T08:47:37.154Z,25.77
2022-08-25T08:49:39.019Z,25.77
2022-08-25T08:51:40.592Z,25.76
2022-08-25T08:53:41.728Z,26
2022-08-25T08:55:42.823Z,26.08
2022-08-25T08:57:43.744Z,26.16
2022-08-25T08:59:44.989Z,26.36
2022-08-25T09:01:46.048Z,26.33
2022-08-25T09:03:47.637Z,26.26
2022-08-25T09:05:48.997Z,26.26
2022-08-25T09:07:50.474Z,26.06
2022-08-25T09:09:52.273Z,26.9
2022-08-25T09:11:52.227Z,26.46
2022-08-25T09:13:53.680Z,26.43
2022-08-25T09:15:54.623Z,26.85
2022-08-25T09:17:55.739Z,26.86
2022-08-25T09:19:57.209Z,27.24
2022-08-25T09:21:58.262Z,26.59
2022-08-25T09:23:59.137Z,27.15
2022-08-25T09:26:00.685Z,28.16
2022-08-25T09:28:01.596Z,26.86
2022-08-25T09:30:04.551Z,27.54
2022-08-25T09:32:04.151Z,27.32
2022-08-25T09:34:05.275Z,26.89
2022-08-25T09:36:08.703Z,26.18
2022-08-25T09:38:07.428Z,26.33
2022-08-25T09:40:08.392Z,26.86
2022-08-25T09:42:10.369Z,27.06
2022-08-25T09:46:13.593Z,27.02
2022-08-25T09:48:14.400Z,27.31
2022-08-25T09:50:18.348Z,27.02
2022-08-25T09:52:17.395Z,26.91
2022-08-25T09:54:18.776Z,27.61
2022-08-25T09:56:19.919Z,27.83
2022-08-25T09:58:22.196Z,27.88
2022-08-25T10:00:22.358Z,28.32
2022-08-25T10:02:23.326Z,27.37
2022-08-25T10:04:24.946Z,27.42
2022-08-25T10:06:25.766Z,27.26
2022-08-25T10:08:27.167Z,27.07
2022-08-25T10:10:28.638Z,26.88
2022-08-25T10:12:29.956Z,26.74
2022-08-25T10:14:30.993Z,27.94
2022-08-25T10:16:35.580Z,27.77
2022-08-25T10:18:33.203Z,27.44
2022-08-25T10:20:35.019Z,27.06
2022-08-25T10:22:35.365Z,26.42
2022-08-25T10:24:36.944Z,26.49
2022-08-25T10:26:38.579Z,27.16
2022-08-25T10:28:39.635Z,28.36
2022-08-25T10:30:40.516Z,28.57
2022-08-25T10:32:42.173Z,27.79
2022-08-25T10:34:44.254Z,28.46
2022-08-25T10:36:46.921Z,28.25
2022-08-25T10:38:46.304Z,28.36
2022-08-25T10:40:47.234Z,28.77
2022-08-25T10:42:48.834Z,28.67
2022-08-25T10:44:49.781Z,28.94
2022-08-25T10:46:50.857Z,28.44
2022-08-25T10:48:52.195Z,28.82
2022-08-25T10:50:53.018Z,29.22
2022-08-25T10:52:54.235Z,29.33
2022-08-25T10:54:55.379Z,29.04
2022-08-25T10:56:59.637Z,29.73
2022-08-25T10:58:57.435Z,29.63
2022-08-25T11:00:58.833Z,29.83
2022-08-25T11:02:59.641Z,29.84
2022-08-25T11:05:00.949Z,30.15
2022-08-25T11:07:02.583Z,30.27
2022-08-25T11:09:03.691Z,29.85
2022-08-25T11:11:04.572Z,29.36
2022-08-25T11:15:06.878Z,30.34
2022-08-25T11:17:08.389Z,29.4
2022-08-25T11:19:09.611Z,28.6
2022-08-25T11:21:11.251Z,28.73
2022-08-25T11:23:12.226Z,28.36
2022-08-25T11:25:13.460Z,28.72
2022-08-25T11:27:14.883Z,28.92
2022-08-25T11:29:15.895Z,28.41
2022-08-25T11:31:16.650Z,28.89
2022-08-25T11:33:17.559Z,28.61
2022-08-25T11:35:18.769Z,28.62
2022-08-25T11:37:20.202Z,28.71
2022-08-25T11:39:22.497Z,28.76
2022-08-25T11:41:24.073Z,28.7
2022-08-25T11:43:25.472Z,29.25
2022-08-25T11:45:27.194Z,29.14
2022-08-25T11:47:28.440Z,28.57
2022-08-25T11:49:29.297Z,28.51
2022-08-25T11:51:30.799Z,28.54
2022-08-25T11:53:32.174Z,28.93
2022-08-25T11:55:33.166Z,29.62
2022-08-25T11:57:34.262Z,29.4
2022-08-25T11:59:35.264Z,29.91
2022-08-25T12:01:36.234Z,30.24
2022-08-25T12:03:37.820Z,30.6
2022-08-25T12:05:39.073Z,31.45
2022-08-25T12:07:40.634Z,29.9
2022-08-25T12:09:42.174Z,29.81
2022-08-25T12:11:43.112Z,30.16
2022-08-25T12:13:44.611Z,29.84
2022-08-25T12:15:46.334Z,29.31
2022-08-25T12:17:47.892Z,29.63
2022-08-25T12:19:49.577Z,29.66
2022-08-25T12:21:50.360Z,30.03
2022-08-25T12:23:53.345Z,30.24
2022-08-25T12:25:53.620Z,30.52
2022-08-25T12:27:54.862Z,30.22
2022-08-25T12:29:55.798Z,30.14
2022-08-25T12:31:57.332Z,29.37
2022-08-25T12:33:58.463Z,29.31
2022-08-25T12:35:59.951Z,29.48
2022-08-25T12:38:00.781Z,29.24
2022-08-25T12:40:02.452Z,29.4
2022-08-25T12:42:03.536Z,29.38
2022-08-25T12:44:04.567Z,29.35
2022-08-25T12:46:05.702Z,29.03
2022-08-25T12:46:49.266Z,29.19
2022-08-25T12:48:50.202Z,29.56
2022-08-25T12:50:51.354Z,29.22
2022-08-25T12:52:53.104Z,29.88
2022-08-25T12:54:54.260Z,29.86
2022-08-25T12:56:55.150Z,29.33
2022-08-25T12:59:00.018Z,29.21
2022-08-25T13:01:00.850Z,29.62
2022-08-25T13:02:59.742Z,29.55
2022-08-25T13:05:00.537Z,29.29
2022-08-25T13:09:02.595Z,28.82
2022-08-25T13:11:03.928Z,28.96
2022-08-25T13:13:04.644Z,28.79
2022-08-25T13:15:06.302Z,28.67
2022-08-25T13:17:07.195Z,28.75
2022-08-25T13:19:08.774Z,28.52
2022-08-25T13:21:10.141Z,28.51
2022-08-25T13:23:11.550Z,28.44
2022-08-25T13:25:12.411Z,28.59
2022-08-25T13:27:13.687Z,28.47
2022-08-25T13:29:17.663Z,29.04
2022-08-25T13:31:16.789Z,29.06
2022-08-25T13:33:17.959Z,28.7
2022-08-25T13:35:19.730Z,28.85
2022-08-25T13:37:20.864Z,29.06
2022-08-25T13:39:33.672Z,29.45
2022-08-25T13:41:29.000Z,29.42
2022-08-25T13:43:27.535Z,29.63
2022-08-25T13:45:25.893Z,30
2022-08-25T13:47:27.306Z,29.61
2022-08-25T13:49:28.857Z,29.4
2022-08-25T13:51:31.155Z,29.44
2022-08-25T13:53:31.679Z,29.14
2022-08-25T13:55:38.097Z,29.09
2022-08-25T13:57:33.090Z,29.16
2022-08-25T13:59:33.874Z,29.21
2022-08-25T14:01:47.502Z,29.35
2022-08-25T14:03:36.442Z,29.34
2022-08-25T14:05:37.728Z,29.24
2022-08-25T14:07:42.846Z,29.34
2022-08-25T14:09:40.152Z,30.2
2022-08-25T14:11:41.282Z,30.42
2022-08-25T14:13:44.425Z,31.37
2022-08-25T14:15:44.179Z,30.9
2022-08-25T14:19:47.599Z,30.82
2022-08-25T14:21:49.603Z,30.82
2022-08-25T14:23:50.037Z,30.91
2022-08-25T14:25:51.546Z,31.1
2022-08-25T14:28:06.576Z,31.11
2022-08-25T14:31:55.779Z,30.91
2022-08-25T14:33:57.173Z,31.3
2022-08-25T14:35:58.763Z,30.89
2022-08-25T14:37:59.989Z,31.22
2022-08-25T14:40:01.405Z,31.07
2022-08-25T14:42:03.078Z,31.3
2022-08-25T14:44:03.967Z,30.83
2022-08-25T14:46:04.860Z,31.25
2022-08-25T14:48:10.266Z,31.43
2022-08-25T14:50:08.590Z,30.54
2022-08-25T14:52:09.986Z,31.39
2022-08-25T14:54:11.646Z,31.49
2022-08-25T14:56:14.120Z,31.04
2022-08-25T14:58:13.213Z,30.92
2022-08-25T15:00:14.198Z,30.53
2022-08-25T15:02:16.048Z,30.27
2022-08-25T15:04:17.743Z,30.34
2022-08-25T15:06:18.476Z,30.24
2022-08-25T15:08:19.771Z,30.37
2022-08-25T15:10:21.742Z,30.13
2022-08-25T15:12:37.650Z,29.82
2022-08-25T15:14:28.369Z,29.61
2022-08-25T15:16:24.675Z,29.8
2022-08-25T15:18:26.276Z,29.98
2022-08-25T15:20:28.409Z,30.34
2022-08-25T15:22:29.668Z,30.77
2022-08-25T15:24:32.976Z,30.07
2022-08-25T15:26:31.875Z,30.21
2022-08-25T15:28:32.696Z,30.85
2022-08-25T15:32:34.736Z,31.34
2022-08-25T15:34:36.014Z,31.2
2022-08-25T15:36:37.237Z,30.35
2022-08-25T15:38:38.291Z,30.42
2022-08-25T15:40:39.768Z,30.11
2022-08-25T15:42:42.863Z,29.82
2022-08-25T15:44:42.502Z,29.66
2022-08-25T15:46:47.056Z,29.54
2022-08-25T15:48:45.387Z,29.55
2022-08-25T15:50:46.812Z,29.59
2022-08-25T15:52:48.464Z,29.46
2022-08-25T15:54:48.804Z,29.49
2022-08-25T15:56:49.720Z,29.67
2022-08-25T15:58:51.232Z,29.8
2022-08-25T16:00:56.455Z,29.57
2022-08-25T16:02:54.250Z,30.06
2022-08-25T16:04:55.392Z,30.02
2022-08-25T16:06:56.283Z,29.83
2022-08-25T16:08:57.588Z,29.61
2022-08-25T16:10:59.098Z,29.93
2022-08-25T16:13:00.279Z,29.83
2022-08-25T16:15:01.162Z,29.79
2022-08-25T16:17:02.040Z,29.81
2022-08-25T16:21:04.861Z,30.04
2022-08-25T16:23:06.564Z,29.9
2022-08-25T16:25:07.830Z,29.8
2022-08-25T16:27:11.299Z,29.59
2022-08-25T16:29:10.375Z,29.72
2022-08-25T16:31:11.633Z,29.74
2022-08-25T16:33:12.883Z,29.68
2022-08-25T16:35:13.764Z,29.7
2022-08-25T16:37:15.054Z,29.59
2022-08-25T16:39:15.966Z,29.56
2022-08-25T16:41:17.328Z,29.37
2022-08-25T16:43:18.622Z,29.23
2022-08-25T16:45:19.497Z,29.1
2022-08-25T16:47:20.595Z,28.99
2022-08-25T16:49:21.253Z,28.88
2022-08-25T16:51:25.689Z,28.86
2022-08-25T16:53:24.006Z,28.8
2022-08-25T16:55:25.185Z,28.72
2022-08-25T16:57:26.063Z,28.8
2022-08-25T16:59:27.469Z,28.83
2022-08-25T17:01:28.801Z,28.82
2022-08-25T17:03:33.568Z,28.84
2022-08-25T17:05:31.142Z,28.85
2022-08-25T17:07:31.968Z,28.88
2022-08-25T17:09:33.548Z,28.86
2022-08-25T17:11:34.640Z,28.86
2022-08-25T17:13:35.878Z,28.84
2022-08-25T17:15:37.659Z,28.81
2022-08-25T17:17:38.851Z,28.79
2022-08-25T17:19:43.158Z,28.77
2022-08-25T17:21:41.301Z,28.7
2022-08-25T17:23:42.794Z,28.63
2022-08-25T17:25:44.199Z,28.58
2022-08-25T17:27:45.745Z,28.54
2022-08-25T17:29:46.842Z,28.51
2022-08-25T17:31:48.640Z,28.39
2022-08-25T17:33:49.501Z,28.37
2022-08-25T17:35:50.670Z,28.31
2022-08-25T17:37:51.824Z,28.29
2022-08-25T17:39:57.472Z,28.26
2022-08-25T17:41:54.316Z,28.2
2022-08-25T17:43:55.723Z,28.05
2022-08-25T17:45:57.184Z,28.04
2022-08-25T17:47:58.461Z,27.89
2022-08-25T17:50:00.211Z,27.8
2022-08-25T17:52:01.455Z,27.73
2022-08-25T17:54:02.604Z,27.56
2022-08-25T17:56:04.363Z,27.49
2022-08-25T17:58:06.200Z,27.63
2022-08-25T18:02:09.337Z,27.33
2022-08-25T18:04:15.676Z,27.34
2022-08-25T18:06:11.901Z,27.06
2022-08-25T18:08:13.458Z,26.79
2022-08-25T18:10:14.876Z,26.74
2022-08-25T18:12:16.510Z,26.25
2022-08-25T18:14:17.418Z,26.01
2022-08-25T18:16:18.466Z,25.88
2022-08-25T18:18:19.390Z,25.83
2022-08-25T18:20:21.155Z,25.85
2022-08-25T18:22:22.880Z,25.79
2022-08-25T18:24:24.223Z,25.64
2022-08-25T18:26:25.800Z,25.72
2022-08-25T18:28:27.318Z,25.61
2022-08-25T18:30:28.941Z,25.39
2022-08-25T18:32:29.842Z,25.43
2022-08-25T18:34:31.210Z,25.38
2022-08-25T18:36:32.641Z,25.34
2022-08-25T18:38:33.911Z,25.12
2022-08-25T18:40:34.822Z,24.86
2022-08-25T18:42:36.175Z,24.7
2022-08-25T18:44:37.021Z,24.46
2022-08-25T18:46:38.467Z,24.4
2022-08-25T18:48:39.293Z,24.62
2022-08-25T18:50:40.784Z,24.52
2022-08-25T18:52:41.957Z,24.54
2022-08-25T18:54:42.951Z,24.43
2022-08-25T18:56:44.467Z,24.8
2022-08-25T18:58:45.599Z,24.66
2022-08-25T19:00:47.381Z,24.65
2022-08-25T19:02:49.162Z,24.42
2022-08-25T19:04:50.423Z,24.51
2022-08-25T19:06:51.945Z,24.83
2022-08-25T19:08:52.922Z,24.66
2022-08-25T19:10:53.831Z,24.48
2022-08-25T19:12:55.569Z,24.34
2022-08-25T19:14:56.899Z,24.21
2022-08-25T19:16:57.728Z,24.07
2022-08-25T19:18:59.051Z,23.95
2022-08-25T19:21:00.796Z,23.97
2022-08-25T19:23:01.812Z,24.02
2022-08-25T19:25:03.406Z,24.02
2022-08-25T19:27:04.324Z,24.19
2022-08-25T19:29:05.299Z,24.16
2022-08-25T19:31:06.400Z,24.33
2022-08-25T19:33:08.801Z,24.55
2022-08-25T19:35:53.524Z,24.59
2022-08-25T19:37:55.003Z,24.45
2022-08-25T19:39:57.398Z,24.32
2022-08-25T19:41:58.205Z,24.19
2022-08-25T19:43:59.069Z,24.22
2022-08-25T19:46:00.105Z,24.17
2022-08-25T19:48:01.789Z,24
2022-08-25T19:50:03.156Z,23.8
2022-08-25T19:52:04.896Z,23.76
2022-08-25T19:54:06.231Z,23.75
2022-08-25T19:56:07.181Z,23.61
2022-08-25T19:58:08.181Z,23.52
2022-08-25T20:00:09.076Z,23.36
2022-08-25T20:02:10.936Z,23.3
2022-08-25T20:04:12.440Z,23.24
2022-08-25T20:06:15.767Z,23.05
2022-08-25T20:08:15.354Z,22.9
2022-08-25T20:10:17.155Z,22.83
2022-08-25T20:12:18.562Z,22.7
2022-08-25T20:14:20.284Z,22.59
2022-08-25T20:16:21.885Z,22.5
2022-08-25T20:20:25.029Z,22.33
2022-08-25T20:22:27.031Z,22.29
2022-08-25T20:24:27.880Z,22.3
2022-08-25T20:26:29.302Z,22.31
2022-08-25T20:28:30.647Z,22.29
2022-08-25T20:30:32.433Z,22.35
2022-08-25T20:32:33.962Z,22.36
2022-08-25T20:34:35.386Z,22.35
2022-08-25T20:36:39.957Z,22.24
2022-08-25T20:38:38.281Z,22.15
2022-08-25T20:40:39.756Z,22.25
2022-08-25T20:42:40.792Z,22.27
2022-08-25T20:44:42.590Z,22.17
2022-08-25T20:46:44.209Z,22.04
2022-08-25T20:48:45.670Z,21.87
2022-08-25T20:50:52.586Z,21.77
2022-08-25T20:52:48.507Z,21.69
2022-08-25T20:54:49.543Z,21.6
2022-08-25T20:56:50.377Z,21.43
2022-08-25T21:00:53.514Z,21.33
2022-08-25T21:02:54.906Z,21.31
2022-08-25T21:04:56.969Z,21.3
2022-08-25T21:06:58.037Z,21.25
2022-08-25T21:08:59.642Z,21.1
2022-08-25T21:11:00.602Z,21.06
2022-08-25T21:13:02.038Z,21.15
2022-08-25T21:15:03.883Z,21.23
2022-08-25T21:17:05.700Z,21.18
2022-08-25T21:19:08.812Z,21.15
2022-08-25T21:21:08.047Z,21.05
2022-08-25T21:23:09.291Z,21.05
2022-08-25T21:25:10.573Z,20.97
2022-08-25T21:27:12.381Z,20.88
2022-08-25T21:29:15.190Z,20.81
2022-08-25T21:31:15.156Z,20.68
2022-08-25T21:33:16.840Z,20.68
2022-08-25T21:35:18.427Z,20.59
2022-08-25T21:37:19.766Z,20.55
2022-08-25T21:39:21.031Z,20.55
2022-08-25T21:41:22.400Z,20.46
2022-08-25T21:43:24.103Z,20.38
2022-08-25T21:45:25.233Z,20.23
2022-08-25T21:47:26.381Z,20.1
2022-08-25T21:49:27.633Z,20.14
2022-08-25T21:51:28.562Z,20.09
2022-08-25T21:53:30.121Z,20.06
2022-08-25T21:55:31.141Z,19.93
2022-08-25T21:57:32.389Z,19.82
2022-08-25T21:59:34.176Z,19.78
2022-08-25T22:01:35.179Z,19.79
2022-08-25T22:03:36.894Z,19.85
2022-08-25T22:05:36.926Z,19.87
2022-08-25T22:07:41.702Z,19.89
2022-08-25T22:09:39.693Z,19.84
2022-08-25T22:11:40.800Z,19.8
2022-08-25T22:13:43.204Z,19.91
2022-08-25T22:15:44.105Z,19.89
2022-08-25T22:17:45.395Z,19.84
2022-08-25T22:19:46.335Z,19.75
2022-08-25T22:21:47.622Z,19.7
2022-08-25T22:23:49.065Z,19.58
2022-08-25T22:25:50.480Z,19.51
2022-08-25T22:27:52.068Z,19.47
2022-08-25T22:29:53.804Z,19.42
2022-08-25T22:31:57.898Z,19.34
2022-08-25T22:33:56.501Z,19.28
2022-08-25T22:35:59.876Z,19.32
2022-08-25T22:37:59.241Z,19.28
2022-08-25T22:40:00.543Z,19.22
2022-08-25T22:42:02.013Z,19.17
2022-08-25T22:44:04.761Z,19.18
2022-08-25T22:46:04.462Z,19.13
2022-08-25T22:48:05.419Z,19.22
2022-08-25T22:50:06.490Z,19.27
2022-08-25T22:52:09.378Z,19.36
2022-08-25T22:54:10.191Z,19.33
2022-08-25T22:56:11.667Z,19.3
2022-08-25T22:58:12.547Z,19.23
2022-08-25T23:00:13.954Z,19.29
2022-08-25T23:02:15.387Z,19.24
2022-08-25T23:04:17.559Z,19.25
2022-08-25T23:06:22.209Z,19.28
2022-08-25T23:08:27.129Z,19.2
2022-08-25T23:10:20.323Z,19.29
2022-08-25T23:12:21.536Z,19.19
2022-08-25T23:14:22.553Z,19.18
2022-08-25T23:16:23.647Z,19.1
2022-08-25T23:18:24.917Z,19.08
2022-08-25T23:20:25.804Z,19.1
2022-08-25T23:22:27.076Z,19.09
2022-08-25T23:24:29.645Z,19.07
2022-08-25T23:26:30.253Z,19.12
2022-08-25T23:28:32.025Z,19.14
2022-08-25T23:30:33.353Z,19.21
2022-08-25T23:32:34.680Z,19.13
2022-08-25T23:34:35.574Z,19.07
2022-08-25T23:36:36.754Z,18.96
2022-08-25T23:38:37.621Z,18.83
2022-08-25T23:40:39.170Z,18.73
2022-08-25T23:42:40.284Z,18.63
2022-08-25T23:44:42.030Z,18.56
2022-08-25T23:46:42.966Z,18.51
2022-08-25T23:48:44.281Z,18.4
2022-08-25T23:50:45.702Z,18.3
2022-08-25T23:52:47.443Z,18.3
2022-08-25T23:54:49.108Z,18.27
2022-08-25T23:56:51.551Z,18.24
2022-08-25T23:58:52.501Z,18.15
